Time;durP1;ratioP1;P1;durP2;ratioP2;P2;SDS_P1;SDS_P2;PMS_P1;PMS_P2;Temp;Humidity;BMP_temperature;BMP_pressure;BME280_temperature;BME280_humidity;BME280_pressure;Samples;Min_cycle;Max_cycle;Signal;HPM_P1;HPM_P2
2022/12/19 00:00:15;;;;;;;9.05;5.97;;;18.70;49.10;;;;;;6242551;28;20783;-62
2022/12/19 00:03:16;;;;;;;8.60;5.88;;;18.70;49.10;;;;;;6243065;28;20022;-64
2022/12/19 00:06:19;;;;;;;9.70;5.72;;;18.70;49.10;;;;;;6242668;28;20056;-63
2022/12/19 00:09:19;;;;;;;9.27;5.68;;;18.70;49.90;;;;;;6241771;28;20113;-62
2022/12/19 00:12:20;;;;;;;9.10;5.93;;;18.70;49.20;;;;;;6242663;28;20450;-63
2022/12/19 00:15:20;;;;;;;9.30;6.35;;;18.70;49.10;;;;;;6243041;28;20018;-63
2022/12/19 00:18:21;;;;;;;9.90;6.38;;;18.70;49.10;;;;;;6242895;28;20025;-63
2022/12/19 00:21:25;;;;;;;9.75;5.63;;;18.70;49.20;;;;;;6242438;28;20561;-63
2022/12/19 00:24:26;;;;;;;9.20;6.05;;;18.70;49.10;;;;;;6243067;28;20151;-63
2022/12/19 00:27:26;;;;;;;8.77;5.95;;;18.70;49.20;;;;;;6241461;28;20025;-63
2022/12/19 00:30:27;;;;;;;8.38;5.47;;;18.70;49.10;;;;;;6242425;28;20037;-63
2022/12/19 00:33:28;;;;;;;8.18;5.70;;;18.70;49.10;;;;;;6242410;28;20498;-63
2022/12/19 00:36:31;;;;;;;9.30;5.47;;;18.70;49.10;;;;;;6241312;28;20025;-63
2022/12/19 00:39:32;;;;;;;7.57;5.28;;;18.70;49.10;;;;;;6242733;28;20025;-63
2022/12/19 00:42:32;;;;;;;8.70;5.55;;;18.70;49.10;;;;;;6243034;28;20041;-63
2022/12/19 00:45:37;;;;;;;7.82;5.30;;;18.70;49.10;;;;;;6242476;28;20498;-63
2022/12/19 00:48:38;;;;;;;7.93;5.73;;;18.70;49.10;;;;;;6241608;28;20033;-63
2022/12/19 00:51:38;;;;;;;8.10;5.53;;;18.70;49.10;;;;;;6242132;28;20026;-62
2022/12/19 00:54:39;;;;;;;6.57;5.15;;;18.70;49.10;;;;;;6242851;28;20600;-62
2022/12/19 00:57:40;;;;;;;8.73;5.47;;;18.70;49.10;;;;;;6242182;28;20838;-63
2022/12/19 01:00:40;;;;;;;7.93;5.47;;;18.70;49.10;;;;;;6242703;28;20026;-63
2022/12/19 01:03:41;;;;;;;8.25;5.65;;;18.70;49.10;;;;;;6242232;28;20483;-63
2022/12/19 01:06:42;;;;;;;8.45;5.95;;;18.70;49.20;;;;;;6240981;28;20032;-63
2022/12/19 01:09:42;;;;;;;7.35;5.43;;;18.70;49.10;;;;;;6242382;28;20438;-63
2022/12/19 01:12:46;;;;;;;8.75;6.18;;;18.70;49.10;;;;;;6243086;28;20123;-63
2022/12/19 01:15:47;;;;;;;7.80;5.20;;;18.70;49.10;;;;;;6245610;28;20025;-63
2022/12/19 01:18:47;;;;;;;7.72;5.30;;;18.70;49.10;;;;;;6246616;28;20056;-63
2022/12/19 01:21:48;;;;;;;7.72;5.53;;;18.70;49.10;;;;;;6246599;28;20093;-63
2022/12/19 01:24:49;;;;;;;7.85;5.35;;;18.70;49.10;;;;;;6246623;28;20038;-63
2022/12/19 01:27:52;;;;;;;7.20;5.25;;;18.70;49.10;;;;;;6246610;28;20029;-63
2022/12/19 01:30:56;;;;;;;9.43;5.60;;;18.70;49.10;;;;;;6246370;28;20068;-63
2022/12/19 01:33:58;;;;;;;7.72;5.20;;;18.70;49.20;;;;;;6246278;28;20439;-63
2022/12/19 01:36:59;;;;;;;7.18;5.22;;;18.70;49.10;;;;;;6246417;28;20387;-63
2022/12/19 01:40:00;;;;;;;8.05;5.22;;;18.70;49.10;;;;;;6246285;28;20017;-63
2022/12/19 01:43:01;;;;;;;7.30;4.78;;;18.70;49.10;;;;;;6246080;28;20030;-62
2022/12/19 01:46:04;;;;;;;6.55;4.70;;;18.70;49.00;;;;;;6246107;28;20033;-63
2022/12/19 01:49:13;;;;;;;7.18;4.80;;;18.70;49.10;;;;;;6236491;28;20032;-63
2022/12/19 01:52:14;;;;;;;9.55;5.68;;;18.70;49.10;;;;;;6230460;28;20031;-63
2022/12/19 01:55:15;;;;;;;7.35;5.05;;;18.70;49.00;;;;;;6245658;28;20038;-63
2022/12/19 01:58:16;;;;;;;7.35;4.97;;;18.70;49.10;;;;;;6245362;28;20033;-63
2022/12/19 02:01:17;;;;;;;7.90;5.15;;;18.70;49.10;;;;;;6245798;28;20398;-63
2022/12/19 02:04:19;;;;;;;8.05;5.43;;;18.70;49.00;;;;;;6246003;28;20457;-63
2022/12/19 02:07:21;;;;;;;7.70;4.90;;;18.70;49.00;;;;;;6245636;28;20025;-63
2022/12/19 02:10:21;;;;;;;7.65;5.30;;;18.70;49.00;;;;;;6245435;28;20116;-63
2022/12/19 02:13:23;;;;;;;7.05;4.68;;;18.70;49.00;;;;;;6245273;28;20429;-63
2022/12/19 02:16:46;;;;;;;8.40;5.25;;;18.70;49.00;;;;;;6245747;28;20030;-63
2022/12/19 02:19:56;;;;;;;8.65;5.20;;;18.70;49.10;;;;;;6220953;28;20670;-63
2022/12/19 02:23:25;;;;;;;8.10;5.40;;;18.70;49.10;;;;;;6220377;28;20022;-63
2022/12/19 02:26:47;;;;;;;7.00;4.70;;;18.70;49.00;;;;;;6237905;28;20502;-62
2022/12/19 02:29:56;;;;;;;7.63;4.93;;;18.70;48.90;;;;;;6220259;28;20026;-63
2022/12/19 02:33:16;;;;;;;7.13;5.00;;;18.70;49.00;;;;;;6220445;28;20026;-63
2022/12/19 02:36:40;;;;;;;6.75;4.78;;;18.70;49.00;;;;;;6220705;28;20033;-62
2022/12/19 02:39:55;;;;;;;7.75;5.00;;;18.70;49.00;;;;;;6242588;28;20038;-63
2022/12/19 02:43:00;;;;;;;;;;;18.70;49.10;;;;;;6245021;28;20024;-62
2022/12/19 02:46:03;;;;;;;7.40;4.93;;;18.70;49.00;;;;;;6244728;28;19916;-63
2022/12/19 02:49:04;;;;;;;8.23;5.25;;;18.70;49.10;;;;;;6244495;28;20033;-63
2022/12/19 02:52:32;;;;;;;6.75;4.63;;;18.70;49.00;;;;;;6244551;28;20029;-63
2022/12/19 02:55:57;;;;;;;7.38;4.53;;;18.70;49.00;;;;;;6216596;28;20443;-62
2022/12/19 02:59:36;;;;;;;6.77;5.20;;;18.70;49.10;;;;;;6232844;28;20037;-63
2022/12/19 03:03:14;;;;;;;6.57;4.80;;;18.70;49.00;;;;;;6232474;28;20260;-63
2022/12/19 03:06:27;;;;;;;6.50;4.80;;;18.70;49.00;;;;;;6244181;28;20083;-63
2022/12/19 03:09:59;;;;;;;7.07;4.93;;;18.70;49.10;;;;;;6244023;28;20057;-62
2022/12/19 03:13:06;;;;;;;5.85;4.15;;;18.70;49.10;;;;;;6243570;28;20049;-63
2022/12/19 03:16:09;;;;;;;7.63;5.38;;;18.70;49.10;;;;;;6244021;28;20418;-62
2022/12/19 03:19:12;;;;;;;6.32;4.53;;;18.70;49.10;;;;;;6243844;28;20232;-62
2022/12/19 03:22:13;;;;;;;6.20;4.35;;;18.70;49.10;;;;;;6243935;28;20037;-63
2022/12/19 03:25:14;;;;;;;6.53;4.63;;;18.70;49.10;;;;;;6243645;28;20403;-63
2022/12/19 03:28:22;;;;;;;6.82;4.43;;;18.70;49.00;;;;;;6243697;28;20078;-63
2022/12/19 03:31:27;;;;;;;6.35;4.30;;;18.70;48.90;;;;;;6243527;28;20021;-62
2022/12/19 03:34:33;;;;;;;7.28;4.47;;;18.70;49.10;;;;;;6243363;28;20026;-62
2022/12/19 03:37:38;;;;;;;6.25;4.28;;;18.70;49.00;;;;;;6243418;28;20032;-62
2022/12/19 03:40:41;;;;;;;6.57;4.45;;;18.70;49.10;;;;;;6242238;28;20036;-63
2022/12/19 03:43:44;;;;;;;7.15;4.57;;;18.70;49.10;;;;;;6243308;28;20037;-63
2022/12/19 03:46:54;;;;;;;6.43;4.55;;;18.70;49.10;;;;;;6243329;28;20074;-63
2022/12/19 03:49:54;;;;;;;6.93;4.80;;;18.70;49.10;;;;;;6243440;28;20395;-62
2022/12/19 03:53:22;;;;;;;6.25;4.45;;;18.70;49.10;;;;;;6242980;28;20030;-63
2022/12/19 03:57:04;;;;;;;6.68;4.30;;;18.70;49.20;;;;;;6241587;28;20059;-62
2022/12/19 04:00:14;;;;;;;6.78;4.57;;;18.70;49.10;;;;;;6242627;28;20037;-63
2022/12/19 04:03:17;;;;;;;5.95;4.55;;;18.70;49.10;;;;;;6243021;28;20029;-63
2022/12/19 04:06:18;;;;;;;5.68;4.20;;;18.70;49.10;;;;;;6242756;28;20647;-63
2022/12/19 04:09:21;;;;;;;6.88;4.45;;;18.70;49.00;;;;;;6242925;28;20083;-62
2022/12/19 04:12:27;;;;;;;6.65;4.25;;;18.70;49.80;;;;;;6242898;28;20096;-62
2022/12/19 04:15:41;;;;;;;5.30;3.97;;;18.70;49.10;;;;;;6242892;28;20053;-63
2022/12/19 04:18:47;;;;;;;7.55;4.93;;;18.70;49.10;;;;;;6243122;28;20572;-63
2022/12/19 04:21:55;;;;;;;6.05;4.28;;;18.70;49.20;;;;;;6242873;28;20483;-62
2022/12/19 04:24:58;;;;;;;7.63;4.60;;;18.70;49.20;;;;;;6242809;28;20136;-63
2022/12/19 04:28:04;;;;;;;6.38;4.47;;;18.70;49.10;;;;;;6242804;28;20029;-62
2022/12/19 04:31:06;;;;;;;7.47;4.60;;;18.70;49.20;;;;;;6242644;28;20410;-63
2022/12/19 04:34:07;;;;;;;5.82;4.28;;;18.70;49.20;;;;;;6242698;28;20026;-63
2022/12/19 04:37:10;;;;;;;6.78;4.50;;;18.70;49.10;;;;;;6242799;28;20033;-63
2022/12/19 04:40:11;;;;;;;6.88;4.53;;;18.70;49.10;;;;;;6243269;28;20024;-63
2022/12/19 04:43:12;;;;;;;6.60;4.40;;;18.70;49.10;;;;;;6242613;28;20021;-63
2022/12/19 04:46:12;;;;;;;6.38;4.40;;;18.70;49.10;;;;;;6243183;28;20501;-62
2022/12/19 04:49:13;;;;;;;6.70;4.38;;;18.60;49.10;;;;;;6247385;28;20040;-63
2022/12/19 04:52:14;;;;;;;7.05;4.53;;;18.60;49.00;;;;;;6247599;28;20033;-63
2022/12/19 04:55:14;;;;;;;6.95;4.90;;;18.70;49.10;;;;;;6247082;28;20495;-63
2022/12/19 04:58:15;;;;;;;6.72;4.80;;;18.70;49.10;;;;;;6247530;28;20537;-63
2022/12/19 05:01:17;;;;;;;6.15;4.38;;;18.70;49.10;;;;;;6246914;28;20462;-63
2022/12/19 05:04:18;;;;;;;7.53;4.93;;;18.70;49.10;;;;;;6245916;28;20021;-63
2022/12/19 05:07:18;;;;;;;6.95;4.53;;;18.70;49.10;;;;;;6246984;28;20072;-62
2022/12/19 05:10:19;;;;;;;6.20;4.10;;;18.70;49.10;;;;;;6247004;28;20049;-62
2022/12/19 05:13:19;;;;;;;5.97;4.25;;;18.70;49.10;;;;;;6246931;28;20018;-63
2022/12/19 05:16:20;;;;;;;5.97;3.95;;;18.70;49.20;;;;;;6246906;28;20071;-63
2022/12/19 05:19:21;;;;;;;7.05;5.00;;;18.70;49.10;;;;;;6247056;28;20029;-63
2022/12/19 05:22:22;;;;;;;9.07;4.80;;;18.60;49.00;;;;;;6246853;28;20033;-63
2022/12/19 05:25:23;;;;;;;7.25;4.75;;;18.70;49.20;;;;;;6246248;28;20033;-63
2022/12/19 05:28:23;;;;;;;7.07;4.47;;;18.70;49.10;;;;;;6247064;28;20026;-63
2022/12/19 05:31:24;;;;;;;8.05;5.00;;;18.60;49.00;;;;;;6246553;28;20030;-63
2022/12/19 05:34:25;;;;;;;6.10;4.03;;;18.70;49.10;;;;;;6245324;28;20026;-63
2022/12/19 05:37:25;;;;;;;6.63;4.32;;;18.70;49.10;;;;;;6246726;28;20022;-63
2022/12/19 05:40:26;;;;;;;5.82;4.10;;;18.70;49.10;;;;;;6246526;28;20414;-63
2022/12/19 05:43:27;;;;;;;6.85;4.45;;;18.70;49.10;;;;;;6246102;28;20021;-62
2022/12/19 05:46:28;;;;;;;5.88;4.13;;;18.70;49.20;;;;;;6246344;28;20021;-63
2022/12/19 05:49:28;;;;;;;6.72;4.47;;;18.60;49.00;;;;;;6261513;28;20024;-63
2022/12/19 05:52:29;;;;;;;6.13;4.55;;;18.70;49.00;;;;;;6245125;28;20368;-63
2022/12/19 05:55:30;;;;;;;6.60;4.35;;;18.60;49.00;;;;;;6245841;28;20491;-63
2022/12/19 05:58:31;;;;;;;6.22;4.50;;;18.70;49.10;;;;;;6244319;28;20025;-61
2022/12/19 06:01:32;;;;;;;7.25;4.45;;;18.70;49.10;;;;;;6239399;28;20062;-62
2022/12/19 06:04:33;;;;;;;7.07;4.55;;;18.70;49.20;;;;;;6221384;28;20434;-62
2022/12/19 06:07:34;;;;;;;7.03;4.70;;;18.70;49.10;;;;;;6239446;28;20057;-63
2022/12/19 06:10:34;;;;;;;5.75;4.07;;;18.70;49.10;;;;;;6230389;28;20032;-65
2022/12/19 06:13:35;;;;;;;7.28;4.85;;;18.70;49.10;;;;;;6246375;28;20024;-65
2022/12/19 06:16:36;;;;;;;6.50;4.50;;;18.70;49.10;;;;;;6250352;28;20048;-65
2022/12/19 06:19:37;;;;;;;13.48;4.45;;;18.70;49.00;;;;;;6246781;28;20389;-65
2022/12/19 06:22:38;;;;;;;5.72;4.13;;;18.70;49.10;;;;;;6251846;28;20441;-65
2022/12/19 06:25:38;;;;;;;6.30;4.43;;;18.70;48.90;;;;;;6244640;28;20075;-66
2022/12/19 06:28:39;;;;;;;6.05;4.20;;;18.70;49.10;;;;;;6243111;28;20490;-65
2022/12/19 06:31:40;;;;;;;7.97;4.88;;;18.70;49.10;;;;;;6245499;28;20105;-65
2022/12/19 06:34:40;;;;;;;6.18;4.45;;;18.70;49.00;;;;;;6235045;28;20041;-65
2022/12/19 06:37:41;;;;;;;6.93;4.55;;;18.70;49.10;;;;;;6239593;28;20460;-66
2022/12/19 06:44:07;;;;;;;7.80;5.15;;;18.70;49.10;;;;;;6269421;28;20025;-65
2022/12/19 06:47:07;;;;;;;7.18;4.43;;;18.70;49.20;;;;;;6250679;28;20037;-67
2022/12/19 06:50:08;;;;;;;6.65;4.80;;;18.70;49.10;;;;;;6259652;28;20056;-67
2022/12/19 06:53:09;;;;;;;9.40;4.53;;;18.70;49.10;;;;;;6237070;28;20026;-68
2022/12/19 06:56:12;;;;;;;8.45;4.53;;;18.70;49.10;;;;;;6244116;28;20149;-68
2022/12/19 06:59:15;;;;;;;12.02;5.05;;;18.70;49.10;;;;;;6221124;28;20018;-69
2022/12/19 07:02:28;;;;;;;9.75;4.32;;;18.70;49.20;;;;;;6238937;28;20021;-68
2022/12/19 07:05:29;;;;;;;6.60;4.60;;;18.70;49.20;;;;;;6223648;28;20029;-68
2022/12/19 07:08:30;;;;;;;7.70;4.78;;;18.70;49.20;;;;;;6246716;28;20028;-68
2022/12/19 07:11:31;;;;;;;10.50;4.60;;;18.70;49.10;;;;;;6246097;28;20031;-68
2022/12/19 07:14:31;;;;;;;9.82;4.32;;;18.70;49.10;;;;;;6246926;28;20095;-68
2022/12/19 07:17:32;;;;;;;7.90;4.55;;;18.70;49.10;;;;;;6247060;28;20136;-66
2022/12/19 07:20:34;;;;;;;7.32;4.50;;;18.70;49.20;;;;;;6246885;28;20026;-67
2022/12/19 07:23:36;;;;;;;6.00;4.40;;;18.70;49.20;;;;;;6246236;28;20462;-67
2022/12/19 07:26:36;;;;;;;7.50;4.90;;;18.70;49.20;;;;;;6246315;28;20026;-67
2022/12/19 07:29:37;;;;;;;9.68;4.38;;;18.70;49.10;;;;;;6244739;28;20564;-63
2022/12/19 07:32:38;;;;;;;5.57;3.88;;;18.70;49.20;;;;;;6260753;28;20052;-63
2022/12/19 07:35:39;;;;;;;6.93;4.43;;;18.70;49.10;;;;;;6269821;28;20437;-63
2022/12/19 07:38:39;;;;;;;9.05;4.30;;;18.70;49.20;;;;;;6248035;28;20475;-63
2022/12/19 07:41:40;;;;;;;6.13;4.53;;;18.70;49.20;;;;;;6245867;28;20029;-62
2022/12/19 07:44:41;;;;;;;7.10;4.82;;;18.70;49.20;;;;;;6244425;28;20025;-62
2022/12/19 07:47:41;;;;;;;7.72;4.82;;;18.70;49.20;;;;;;6245966;28;20026;-63
2022/12/19 07:50:44;;;;;;;6.40;4.65;;;18.70;49.20;;;;;;6244312;28;20029;-63
2022/12/19 07:53:45;;;;;;;7.30;4.22;;;18.70;49.20;;;;;;6255166;28;20470;-62
2022/12/19 07:56:46;;;;;;;7.35;4.53;;;18.60;49.10;;;;;;6244512;28;20042;-62
2022/12/19 07:59:46;;;;;;;7.07;4.60;;;18.70;49.20;;;;;;6244733;28;20506;-63
2022/12/19 08:02:47;;;;;;;7.00;4.95;;;18.60;49.10;;;;;;6242375;28;20030;-63
2022/12/19 08:05:48;;;;;;;6.38;4.20;;;18.70;49.20;;;;;;6220944;28;20026;-63
2022/12/19 08:08:49;;;;;;;7.65;4.50;;;18.70;49.10;;;;;;6240968;28;20104;-63
2022/12/19 08:11:49;;;;;;;7.35;5.18;;;18.70;49.20;;;;;;6248384;28;20366;-63
2022/12/19 08:14:50;;;;;;;8.52;4.53;;;18.60;49.00;;;;;;6251672;28;20087;-63
2022/12/19 08:17:53;;;;;;;6.93;4.65;;;18.60;49.10;;;;;;6254928;28;20424;-63
2022/12/19 08:20:53;;;;;;;6.28;4.32;;;18.70;49.20;;;;;;6270217;28;20095;-63
2022/12/19 08:23:54;;;;;;;5.53;4.05;;;18.70;49.10;;;;;;6255867;28;20053;-63
2022/12/19 08:26:55;;;;;;;8.88;4.82;;;18.60;49.10;;;;;;6250369;28;20448;-63
2022/12/19 08:29:56;;;;;;;6.38;4.65;;;18.60;49.10;;;;;;6250735;28;20021;-63
2022/12/19 08:32:57;;;;;;;7.35;4.57;;;18.70;49.20;;;;;;6235167;28;20529;-64
2022/12/19 08:35:57;;;;;;;7.38;4.55;;;18.70;49.20;;;;;;6226321;28;20018;-62
2022/12/19 08:38:58;;;;;;;12.10;4.68;;;18.70;49.20;;;;;;6240940;28;20149;-63
2022/12/19 08:41:59;;;;;;;6.38;4.00;;;18.70;48.90;;;;;;6249934;28;20418;-63
2022/12/19 08:45:00;;;;;;;7.28;4.82;;;18.70;49.10;;;;;;6273415;28;20021;-63
2022/12/19 08:48:01;;;;;;;6.78;4.72;;;18.70;49.10;;;;;;6289966;28;20033;-63
2022/12/19 08:51:06;;;;;;;7.60;4.85;;;18.70;49.10;;;;;;6274864;28;20378;-63
2022/12/19 08:54:07;;;;;;;15.18;5.38;;;18.70;49.10;;;;;;6260033;28;20455;-62
2022/12/19 08:57:08;;;;;;;9.45;5.38;;;18.70;49.10;;;;;;6230281;28;20096;-63
2022/12/19 09:00:09;;;;;;;10.55;6.07;;;18.70;49.10;;;;;;6247305;28;20017;-62
2022/12/19 09:03:10;;;;;;;9.40;5.32;;;18.70;49.10;;;;;;6247600;28;20430;-64
2022/12/19 09:06:12;;;;;;;10.02;5.65;;;18.70;49.20;;;;;;6248436;28;20083;-64
2022/12/19 09:09:13;;;;;;;13.70;6.70;;;18.70;49.20;;;;;;6248508;28;20530;-64
2022/12/19 09:12:15;;;;;;;16.08;7.47;;;18.70;49.20;;;;;;6246963;28;20033;-64
2022/12/19 09:15:16;;;;;;;16.70;7.90;;;18.70;49.10;;;;;;6248522;28;20022;-64
2022/12/19 09:18:17;;;;;;;19.17;7.97;;;18.70;49.10;;;;;;6252222;28;20401;-64
2022/12/19 09:21:19;;;;;;;19.45;7.65;;;18.60;49.10;;;;;;6251218;28;20021;-63
2022/12/19 09:24:20;;;;;;;18.55;8.30;;;18.60;49.10;;;;;;6248616;28;20029;-63
2022/12/19 09:27:20;;;;;;;20.92;8.27;;;18.70;49.20;;;;;;6249049;28;20368;-63
2022/12/19 09:30:21;;;;;;;16.00;8.02;;;18.70;49.20;;;;;;6248970;28;20029;-63
2022/12/19 09:33:22;;;;;;;15.65;8.13;;;18.70;49.20;;;;;;6248194;28;20040;-63
2022/12/19 09:36:24;;;;;;;20.67;8.55;;;18.70;49.20;;;;;;6248754;28;20744;-63
2022/12/19 09:39:24;;;;;;;25.10;9.48;;;18.70;49.20;;;;;;6248277;28;20030;-63
2022/12/19 09:42:53;;;;;;;17.85;8.18;;;18.70;49.20;;;;;;6248537;28;20033;-63
2022/12/19 09:45:56;;;;;;;22.73;8.73;;;18.70;49.00;;;;;;6248664;28;20075;-63
2022/12/19 09:49:00;;;;;;;23.33;8.02;;;18.70;48.90;;;;;;6247788;28;20056;-63
2022/12/19 09:52:04;;;;;;;15.85;7.80;;;18.70;48.80;;;;;;6247552;28;20083;-63
2022/12/19 09:55:27;;;;;;;22.20;8.18;;;18.80;48.90;;;;;;6247654;28;20025;-63
2022/12/19 09:58:46;;;;;;;20.45;8.18;;;18.80;48.80;;;;;;6247131;28;20042;-66
2022/12/19 10:01:58;;;;;;;13.65;7.53;;;18.80;48.80;;;;;;6256819;28;20130;-67
2022/12/19 10:05:03;;;;;;;23.30;9.20;;;18.80;48.70;;;;;;6240346;28;20065;-67
2022/12/19 10:08:20;;;;;;;15.13;7.72;;;18.80;48.70;;;;;;6243337;28;20040;-67
2022/12/19 10:11:39;;;;;;;17.15;7.72;;;18.80;48.80;;;;;;6253372;28;20032;-67
2022/12/19 10:14:58;;;;;;;12.98;7.47;;;18.80;48.80;;;;;;6262256;28;20021;-67
2022/12/19 10:18:16;;;;;;;15.93;7.47;;;18.80;48.70;;;;;;6244990;28;20064;-68
2022/12/19 10:21:41;;;;;;;15.63;7.57;;;18.80;48.70;;;;;;6247473;28;20029;-67
2022/12/19 10:25:20;;;;;;;15.68;8.02;;;18.80;48.90;;;;;;6251390;28;20025;-68
2022/12/19 10:28:41;;;;;;;12.35;7.03;;;18.80;49.00;;;;;;6246280;28;20085;-67
2022/12/19 10:31:52;;;;;;;16.80;7.55;;;18.70;49.00;;;;;;6249799;28;20030;-67
2022/12/19 10:34:54;;;;;;;15.88;7.38;;;18.70;49.10;;;;;;6240022;28;20505;-68
2022/12/19 10:38:09;;;;;;;14.48;7.57;;;18.70;49.00;;;;;;6247294;28;20064;-68
2022/12/19 10:41:10;;;;;;;;;;;18.70;49.10;;;;;;6261712;28;20029;-68
2022/12/19 10:44:12;;;;;;;15.43;7.15;;;18.70;49.10;;;;;;6270528;28;19940;-67
2022/12/19 10:47:15;;;;;;;14.52;7.47;;;18.70;49.10;;;;;;6247396;28;20490;-67
2022/12/19 10:50:23;;;;;;;13.90;7.10;;;18.70;49.20;;;;;;6239596;28;20582;-67
2022/12/19 10:53:27;;;;;;;12.88;7.15;;;18.70;49.20;;;;;;6245387;28;20029;-68
2022/12/19 10:56:30;;;;;;;15.13;7.15;;;18.70;49.20;;;;;;6246036;28;20117;-68
2022/12/19 10:59:30;;;;;;;13.75;7.03;;;18.70;49.20;;;;;;6245349;28;20037;-67
2022/12/19 11:02:37;;;;;;;14.30;6.82;;;18.70;49.20;;;;;;6245888;28;20030;-68
2022/12/19 11:05:40;;;;;;;11.02;6.68;;;18.70;49.20;;;;;;6245232;28;20033;-68
2022/12/19 11:08:41;;;;;;;11.43;6.07;;;18.70;49.20;;;;;;6244622;28;20026;-68
2022/12/19 11:11:42;;;;;;;12.15;6.45;;;18.70;49.20;;;;;;6246558;28;20029;-68
2022/12/19 11:14:51;;;;;;;12.68;6.68;;;18.70;49.30;;;;;;6263052;28;20086;-65
2022/12/19 11:18:06;;;;;;;10.95;6.43;;;18.70;49.30;;;;;;6239815;28;20099;-68
2022/12/19 11:21:19;;;;;;;16.60;7.53;;;18.70;49.30;;;;;;6256152;28;20028;-68
2022/12/19 11:24:27;;;;;;;13.27;6.82;;;18.70;49.30;;;;;;6270171;28;20531;-67
2022/12/19 11:27:36;;;;;;;11.15;6.00;;;18.70;49.30;;;;;;6249248;28;20075;-67
2022/12/19 11:30:39;;;;;;;11.10;5.80;;;18.70;49.40;;;;;;6245904;28;20049;-68
2022/12/19 11:33:44;;;;;;;11.93;6.25;;;18.70;49.40;;;;;;6224140;28;20073;-67
2022/12/19 11:36:59;;;;;;;14.90;6.50;;;18.70;49.40;;;;;;6240844;28;20331;-68
2022/12/19 11:40:09;;;;;;;14.13;7.10;;;18.70;49.40;;;;;;6245576;28;20406;-67
2022/12/19 11:43:36;;;;;;;10.98;6.80;;;18.70;49.30;;;;;;6243757;28;20827;-68
2022/12/19 11:46:44;;;;;;;12.27;7.10;;;18.70;49.40;;;;;;6257090;28;20055;-68
2022/12/19 11:49:52;;;;;;;13.73;8.27;;;18.70;49.30;;;;;;6270156;28;20075;-68
2022/12/19 11:53:01;;;;;;;18.50;11.88;;;18.70;49.40;;;;;;6248870;28;20095;-68
2022/12/19 11:56:09;;;;;;;20.52;12.63;;;18.70;49.30;;;;;;6243355;28;20055;-68
2022/12/19 11:59:31;;;;;;;25.38;13.05;;;18.70;49.30;;;;;;6245409;28;20021;-68
2022/12/19 12:02:56;;;;;;;27.20;16.85;;;18.70;49.30;;;;;;6244986;28;20025;-68
2022/12/19 12:05:57;;;;;;;30.30;18.37;;;18.70;49.40;;;;;;6248645;28;20021;-67
2022/12/19 12:09:17;;;;;;;34.20;21.80;;;18.70;49.40;;;;;;6270042;28;20510;-68
2022/12/19 12:12:30;;;;;;;36.92;24.55;;;18.70;49.40;;;;;;6247580;28;20037;-67
2022/12/19 12:15:54;;;;;;;47.85;29.25;;;18.70;49.40;;;;;;6245494;28;20057;-68
2022/12/19 12:19:18;;;;;;;50.30;31.67;;;18.70;49.40;;;;;;6235972;28;20124;-67
2022/12/19 12:22:37;;;;;;;60.72;38.95;;;18.70;49.40;;;;;;6240488;28;20393;-67
2022/12/19 12:25:47;;;;;;;64.60;40.28;;;18.70;49.40;;;;;;6243361;28;20037;-67
2022/12/19 12:28:53;;;;;;;70.75;43.53;;;18.70;49.40;;;;;;6247531;28;20057;-68
2022/12/19 12:32:09;;;;;;;82.70;50.13;;;18.70;49.40;;;;;;6243386;28;20036;-68
2022/12/19 12:35:23;;;;;;;87.82;53.63;;;18.70;49.40;;;;;;6243007;28;20030;-67
2022/12/19 12:38:44;;;;;;;94.50;58.90;;;18.70;49.40;;;;;;6243032;28;20260;-67
2022/12/19 12:42:14;;;;;;;102.00;62.60;;;18.70;49.30;;;;;;6244080;28;20463;-67
2022/12/19 12:45:26;;;;;;;117.95;68.95;;;18.70;49.40;;;;;;6219727;28;20022;-68
2022/12/19 12:48:52;;;;;;;125.65;75.97;;;18.70;49.50;;;;;;6234140;28;20068;-68
2022/12/19 12:51:53;;;;;;;142.30;84.80;;;18.70;49.50;;;;;;6245187;28;20471;-68
2022/12/19 12:54:56;;;;;;;142.13;86.72;;;18.70;49.50;;;;;;6268807;28;20091;-68
2022/12/19 12:57:57;;;;;;;147.25;88.13;;;18.70;49.50;;;;;;6260802;28;20132;-68
2022/12/19 13:01:32;;;;;;;149.07;91.05;;;18.70;49.60;;;;;;6242893;28;20029;-68
2022/12/19 13:04:39;;;;;;;156.90;94.38;;;18.70;49.50;;;;;;6243496;28;20036;-66
2022/12/19 13:07:51;;;;;;;164.55;100.72;;;18.70;49.60;;;;;;6244099;28;20107;-68
2022/12/19 13:10:57;;;;;;;160.77;97.15;;;18.70;49.50;;;;;;6247923;28;20037;-68
2022/12/19 13:13:57;;;;;;;157.90;96.65;;;18.70;49.60;;;;;;6250214;28;20116;-67
2022/12/19 13:16:59;;;;;;;163.15;100.05;;;18.70;49.60;;;;;;6248086;28;20501;-68
2022/12/19 13:20:02;;;;;;;158.23;96.22;;;18.70;49.60;;;;;;6246707;28;20028;-68
2022/12/19 13:23:21;;;;;;;159.77;96.78;;;18.70;49.60;;;;;;6245945;28;20025;-68
2022/12/19 13:26:43;;;;;;;161.07;99.05;;;18.70;49.70;;;;;;6247931;28;20400;-68
2022/12/19 13:29:59;;;;;;;158.50;97.93;;;18.70;49.70;;;;;;6247427;28;20029;-68
2022/12/19 13:33:00;;;;;;;158.07;99.03;;;18.70;49.70;;;;;;6245204;28;20033;-67
2022/12/19 13:36:01;;;;;;;155.63;97.05;;;18.70;49.70;;;;;;6244952;28;20104;-68
2022/12/19 13:39:01;;;;;;;154.85;95.82;;;18.70;49.80;;;;;;6246838;28;20021;-67
2022/12/19 13:45:31;;;;;;;151.85;92.78;;;18.70;49.70;;;;;;6258934;28;20502;-67
2022/12/19 13:48:45;;;;;;;147.73;92.32;;;18.70;49.70;;;;;;6246359;28;20018;-67
2022/12/19 13:51:49;;;;;;;146.77;88.53;;;18.70;49.70;;;;;;6246449;28;20360;-68
2022/12/19 13:54:54;;;;;;;144.65;90.55;;;18.70;49.70;;;;;;6245149;28;20025;-68
2022/12/19 13:57:56;;;;;;;139.32;87.60;;;18.70;49.70;;;;;;6246705;28;20069;-68
2022/12/19 14:01:05;;;;;;;139.07;85.60;;;18.70;49.70;;;;;;6261143;28;20029;-67
2022/12/19 14:04:11;;;;;;;139.57;87.15;;;18.70;49.70;;;;;;6248237;28;20515;-68
2022/12/19 14:07:35;;;;;;;136.75;86.50;;;18.70;49.70;;;;;;6246143;28;20387;-68
2022/12/19 14:10:40;;;;;;;131.05;83.07;;;18.70;49.80;;;;;;6248393;28;20033;-67
2022/12/19 14:17:15;;;;;;;124.45;79.00;;;18.70;49.80;;;;;;6235547;28;20026;-68
2022/12/19 14:20:22;;;;;;;127.75;82.00;;;18.70;49.80;;;;;;6269502;28;20033;-68
2022/12/19 14:23:22;;;;;;;123.22;80.05;;;18.70;49.80;;;;;;6266861;28;20147;-66
2022/12/19 14:26:30;;;;;;;125.18;80.82;;;18.70;49.80;;;;;;6244449;28;20033;-67
2022/12/19 14:29:40;;;;;;;124.95;80.53;;;18.70;49.80;;;;;;6246056;28;20037;-67
2022/12/19 14:32:41;;;;;;;125.00;80.03;;;18.70;49.80;;;;;;6245517;28;20030;-68
2022/12/19 14:35:48;;;;;;;125.97;76.35;;;18.70;49.80;;;;;;6245826;28;20084;-66
2022/12/19 14:38:49;;;;;;;116.22;74.90;;;18.70;49.80;;;;;;6245630;28;20557;-69
2022/12/19 14:45:33;;;;;;;114.05;73.20;;;18.70;49.80;;;;;;6245680;28;20030;-68
2022/12/19 14:48:45;;;;;;;118.50;75.45;;;18.70;49.90;;;;;;6245147;28;20450;-67
2022/12/19 14:51:46;;;;;;;110.28;70.72;;;18.70;49.90;;;;;;6243241;28;20513;-72
2022/12/19 14:55:13;;;;;;;111.05;69.45;;;18.70;49.90;;;;;;6250761;28;20017;-68
2022/12/19 14:58:18;;;;;;;104.00;69.05;;;18.70;49.90;;;;;;6270153;28;20457;-67
2022/12/19 15:01:30;;;;;;;104.28;66.60;;;18.70;49.90;;;;;;6267699;28;20028;-68
2022/12/19 15:05:07;;;;;;;99.38;65.45;;;18.70;49.90;;;;;;6252162;28;20108;-68
2022/12/19 15:08:10;;;;;;;99.10;64.00;;;18.70;49.90;;;;;;6245587;28;20021;-68
2022/12/19 15:14:47;;;;;;;96.00;62.88;;;18.70;50.00;;;;;;6244916;28;20414;-68
2022/12/19 15:17:53;;;;;;;96.30;61.05;;;18.70;50.00;;;;;;6244511;28;20144;-68
2022/12/19 15:20:56;;;;;;;93.68;61.17;;;18.70;50.00;;;;;;6244250;28;20612;-68
2022/12/19 15:23:57;;;;;;;91.32;58.45;;;18.70;50.00;;;;;;6222990;28;20030;-67
2022/12/19 15:26:57;;;;;;;89.82;57.60;;;18.70;50.70;;;;;;6239927;28;20454;-72
2022/12/19 15:29:58;;;;;;;89.90;56.75;;;18.70;50.00;;;;;;6263683;28;20025;-69
2022/12/19 15:32:59;;;;;;;85.60;56.67;;;18.70;49.90;;;;;;6268056;28;20060;-69
2022/12/19 15:36:00;;;;;;;84.53;54.13;;;18.70;50.00;;;;;;6259705;28;20025;-69
2022/12/19 15:39:02;;;;;;;86.32;55.72;;;18.70;50.70;;;;;;6244628;28;20025;-70
2022/12/19 15:42:04;;;;;;;78.78;51.50;;;18.70;50.10;;;;;;6242696;28;20029;-69
2022/12/19 15:45:06;;;;;;;82.95;52.33;;;18.70;50.00;;;;;;6244532;28;20096;-68
2022/12/19 15:48:13;;;;;;;83.20;50.88;;;18.70;50.00;;;;;;6268050;28;20032;-69
2022/12/19 15:51:15;;;;;;;73.18;48.05;;;18.70;50.00;;;;;;6229487;28;20426;-68
2022/12/19 15:54:16;;;;;;;71.82;45.53;;;18.70;50.00;;;;;;6244314;28;20013;-68
2022/12/19 15:57:20;;;;;;;69.72;44.38;;;18.70;49.80;;;;;;6244143;28;20057;-69
2022/12/19 16:00:24;;;;;;;71.55;44.92;;;18.70;50.00;;;;;;6242469;28;20061;-69
2022/12/19 16:03:25;;;;;;;66.22;44.38;;;18.70;50.00;;;;;;6243677;28;20032;-69
2022/12/19 16:06:26;;;;;;;67.07;43.25;;;18.70;50.10;;;;;;6252989;28;20485;-68
2022/12/19 16:09:26;;;;;;;62.50;41.58;;;18.70;50.00;;;;;;6269112;28;20107;-69
2022/12/19 16:12:34;;;;;;;62.03;41.13;;;18.70;50.10;;;;;;6262724;28;20032;-69